Flight Track Log - Related Links

Times and Time Zones

All times are in EDT time to prevent confusion due to time zone crossing. See the WJA648 flight status page for this flight to view local times or setup timezone preferences in your user account.

Time Position Orientation Groundspeed Altitude Reporting Facility
EDT Latitude Longitude Course Direction KTS MPH feet Rate Location/Type
Mon 03:08:16 AM 51.1000 -114.0333 94° East 30 35 3,500  Level Edmonton Center
Mon 03:09:16 AM 51.0667 -114.0500 197° South 160 184 4,800 1,400 Climbing Edmonton Center
Mon 03:10:16 AM 51.0167 -114.0500 180° South 210 242 6,300 1,700 Climbing Edmonton Center
Mon 03:11:16 AM 50.9667 -113.9500 128° Southeast 280 322 8,200 2,250 Climbing Edmonton Center
Mon 03:12:00 AM 51.0500 -113.2191 90° East  Level FlightAware
Mon 03:12:16 AM 50.9833 -113.8500 75° East 290 334 10,800  Level Edmonton Center
Mon 03:13:00 AM 51.0447 -113.0184 94° East  Level FlightAware
Mon 03:13:16 AM 51.0167 -113.7000 70° East 340 391 13,600  Level Edmonton Center
Mon 03:14:16 AM 51.0167 -113.5667 90° East 360 414 16,400 2,600 Climbing Edmonton Center
Mon 03:15:00 AM 51.0616 -113.4185 96° East  Level FlightAware
Mon 03:17:16 AM 51.0167 -113.0167 90° East 420 483 24,000  Level Edmonton Center
Mon 03:18:16 AM 51.0000 -112.8333 98° East 430 495 26,200 2,050 Climbing Edmonton Center
Mon 03:19:16 AM 50.9833 -112.6333 97° East 440 506 28,100 1,850 Climbing Edmonton Center
Mon 03:20:16 AM 50.9667 -112.4500 98° East 450 518 29,900 1,700 Climbing Edmonton Center
Mon 03:21:16 AM 50.9500 -112.2333 97° East 450 518 31,500 1,700 Climbing Edmonton Center
Mon 03:22:00 AM 50.9667 -112.0173 90° East  Level FlightAware
Mon 03:22:16 AM 50.9500 -112.0333 90° East 460 529 33,300  Level Edmonton Center
Mon 03:23:16 AM 50.9167 -111.8167 104° East 450 518 34,900 1,200 Climbing Edmonton Center
Mon 03:24:16 AM 50.9000 -111.6333 98° East 460 529 35,700 900 Climbing Edmonton Center
Mon 03:25:16 AM 50.9000 -111.4167 90° East 470 541 36,700 1,300 Climbing Edmonton Center
Mon 03:26:16 AM 50.9000 -111.2000 90° East 450 518 38,300 911 Climbing Edmonton Center
Mon 03:27:08 AM 50.8833 -111.0833 103° East 460 529 38,400 375 Climbing Winnipeg Center
Mon 03:28:08 AM 50.8833 -110.8667 90° East 470 541 39,000 300 Climbing Winnipeg Center
Mon 03:29:08 AM 50.8833 -110.6500 90° East 470 541 39,000  Level Winnipeg Center
Mon 03:30:08 AM 50.8667 -110.4333 97° East 470 541 39,000  Level Winnipeg Center
Mon 03:31:08 AM 50.8500 -110.2500 98° East 470 541 39,000  Level Winnipeg Center
Mon 03:32:08 AM 50.8500 -110.0333 90° East 470 541 39,000  Level Winnipeg Center
Mon 03:33:08 AM 50.8333 -109.8333 97° East 470 541 39,000  Level Winnipeg Center
Mon 03:34:08 AM 50.8167 -109.6500 98° East 470 541 39,000  Level Winnipeg Center
Mon 03:35:08 AM 50.8000 -109.4333 97° East 470 541 39,000  Level Winnipeg Center
Mon 03:36:08 AM 50.7833 -109.2333 97° East 470 541 39,000  Level Winnipeg Center
Mon 03:37:08 AM 50.7500 -109.0167 104° East 470 541 39,000  Level Winnipeg Center
Mon 03:38:08 AM 50.7500 -108.8167 90° East 470 541 39,000  Level Winnipeg Center
Mon 03:39:08 AM 50.7167 -108.6000 104° East 480 552 39,000  Level Winnipeg Center
Mon 03:40:08 AM 50.7000 -108.4167 98° East 480 552 39,000  Level Winnipeg Center
Mon 03:41:08 AM 50.6667 -108.2000 104° East 480 552 39,000  Level Winnipeg Center
Mon 03:42:08 AM 50.6333 -108.0000 105° East 490 564 39,000  Level Winnipeg Center
Mon 03:43:08 AM 50.6333 -107.7500 90° East 490 564 39,000  Level Winnipeg Center
Mon 03:44:08 AM 50.6000 -107.5667 106° East 490 564 39,000  Level Winnipeg Center
Mon 03:45:08 AM 50.5833 -107.3500 97° East 480 552 39,000  Level Winnipeg Center
Mon 03:46:08 AM 50.5500 -107.1500 105° East 480 552 39,000  Level Winnipeg Center
Mon 03:47:08 AM 50.5333 -106.9333 97° East 480 552 39,000  Level Winnipeg Center
Mon 03:48:08 AM 50.5000 -106.7167 104° East 480 552 39,000  Level Winnipeg Center
Mon 03:49:08 AM 50.4833 -106.5333 98° East 480 552 39,000  Level Winnipeg Center
Mon 03:50:08 AM 50.4500 -106.3167 104° East 470 541 39,000  Level Winnipeg Center
Mon 03:51:08 AM 50.4333 -106.1167 97° East 470 541 39,000  Level Winnipeg Center
Mon 03:52:08 AM 50.4000 -105.9333 106° East 470 541 39,000  Level Winnipeg Center
Mon 03:53:08 AM 50.3833 -105.7167 97° East 470 541 39,000  Level Winnipeg Center
Mon 03:54:08 AM 50.3500 -105.5333 106° East 470 541 39,000  Level Winnipeg Center
Mon 03:55:08 AM 50.3333 -105.3167 97° East 480 552 39,000  Level Winnipeg Center
Mon 03:56:08 AM 50.3000 -105.1167 105° East 480 552 39,000  Level Winnipeg Center
Mon 03:57:08 AM 50.2667 -104.9167 105° East 470 541 39,000  Level Winnipeg Center
Mon 03:58:08 AM 50.2333 -104.7167 105° East 470 541 39,000  Level Winnipeg Center
Mon 03:59:08 AM 50.2167 -104.5000 97° East 470 541 39,000  Level Winnipeg Center
Mon 04:00:08 AM 50.1833 -104.3167 106° East 480 552 39,000  Level Winnipeg Center
Mon 04:01:08 AM 50.1667 -104.1000 97° East 480 552 39,000  Level Winnipeg Center
Mon 04:02:08 AM 50.1167 -103.8833 110° East 480 552 39,000  Level Winnipeg Center
Mon 04:03:08 AM 50.1000 -103.6833 97° East 480 552 39,000  Level Winnipeg Center
Mon 04:04:08 AM 50.0667 -103.4833 104° East 490 564 39,000  Level Winnipeg Center
Mon 04:05:08 AM 50.0333 -103.3000 106° East 490 564 39,000  Level Winnipeg Center
Mon 04:06:08 AM 50.0000 -103.0833 103° East 490 564 39,000  Level Winnipeg Center
Mon 04:07:08 AM 49.9833 -102.8833 97° East 480 552 39,000  Level Winnipeg Center
Mon 04:08:08 AM 49.9333 -102.6667 110° East 480 552 39,000  Level Winnipeg Center
Mon 04:09:08 AM 49.9167 -102.4833 98° East 480 552 39,000  Level Winnipeg Center
Mon 04:10:08 AM 49.8667 -102.2667 110° East 470 541 39,000  Level Winnipeg Center
Mon 04:11:08 AM 49.8500 -102.0833 98° East 470 541 39,000  Level Winnipeg Center
Mon 04:12:08 AM 49.8000 -101.9000 113° Southeast 470 541 39,000  Level Winnipeg Center
Mon 04:13:08 AM 49.7833 -101.6833 97° East 470 541 39,000  Level Winnipeg Center
Mon 04:14:08 AM 49.7333 -101.5000 113° Southeast 470 541 39,000  Level Winnipeg Center
Mon 04:15:08 AM 49.7167 -101.2833 97° East 470 541 39,000  Level Winnipeg Center
Mon 04:16:08 AM 49.6667 -101.1000 113° Southeast 470 541 39,000  Level Winnipeg Center
Mon 04:17:08 AM 49.6500 -100.9000 97° East 480 552 39,000  Level Winnipeg Center
Mon 04:18:08 AM 49.6000 -100.6833 110° East 480 552 39,000  Level Winnipeg Center
Mon 04:19:08 AM 49.5667 -100.5000 106° East 480 552 39,000  Level Winnipeg Center
Mon 04:20:08 AM 49.5333 -100.2833 103° East 480 552 39,000  Level Winnipeg Center
Mon 04:21:08 AM 49.5000 -100.1167 107° East 480 552 39,000  Level Winnipeg Center
Mon 04:22:08 AM 49.4667 -99.9000 103° East 480 552 39,000  Level Winnipeg Center
Mon 04:23:08 AM 49.4667 -99.7000 90° East 480 552 39,000  Level Winnipeg Center
Mon 04:24:08 AM 49.4500 -99.4833 97° East 480 552 39,000  Level Winnipeg Center
Mon 04:25:08 AM 49.4333 -99.2833 97° East 480 552 39,000  Level Winnipeg Center
Mon 04:26:08 AM 49.4167 -99.0667 97° East 480 552 39,000  Level Winnipeg Center
Mon 04:27:08 AM 49.4000 -98.8667 97° East 480 552 39,000  Level Winnipeg Center
Mon 04:28:08 AM 49.3833 -98.6833 98° East 480 552 39,000  Level Winnipeg Center
Mon 04:29:08 AM 49.3667 -98.4833 97° East 480 552 39,000  Level Winnipeg Center
Mon 04:30:08 AM 49.3500 -98.2833 97° East 480 552 39,000  Level Winnipeg Center
Mon 04:31:08 AM 49.3167 -98.0667 103° East 480 552 39,000  Level Winnipeg Center
Mon 04:32:08 AM 49.3000 -97.8333 96° East 490 564 39,000  Level Winnipeg Center
Mon 04:33:08 AM 49.3000 -97.6667 90° East 490 564 39,000  Level Winnipeg Center
Mon 04:34:08 AM 49.2833 -97.4333 96° East 490 564 39,000  Level Winnipeg Center
Mon 04:35:08 AM 49.2667 -97.2167 97° East 490 564 39,000  Level Winnipeg Center
Mon 04:36:08 AM 49.2333 -97.0167 104° East 500 575 39,000  Level Winnipeg Center
Mon 04:37:08 AM 49.2167 -96.8167 97° East 500 575 39,000  Level Winnipeg Center
Mon 04:38:08 AM 49.2000 -96.6000 97° East 490 564 39,000  Level Winnipeg Center
Mon 04:39:08 AM 49.1833 -96.4000 97° East 490 564 39,000  Level Winnipeg Center
Mon 04:40:08 AM 49.1500 -96.2000 104° East 490 564 39,000  Level Winnipeg Center
Mon 04:41:08 AM 49.1167 -95.9667 102° East 490 564 39,000  Level Winnipeg Center
Mon 04:42:08 AM 49.1000 -95.7833 98° East 490 564 39,000  Level Winnipeg Center
Mon 04:43:08 AM 49.0833 -95.5667 97° East 490 564 39,000  Level Winnipeg Center
Mon 04:44:08 AM 49.0667 -95.3667 97° East 480 552 39,000  Level Winnipeg Center
Mon 04:45:08 AM 49.0500 -95.1833 98° East 480 552 39,000  Level Winnipeg Center
Mon 04:46:08 AM 49.0333 -94.9833 97° East 480 552 39,000  Level Winnipeg Center
Mon 04:47:08 AM 48.9833 -94.7667 109° East 480 552 39,000  Level Winnipeg Center
Mon 04:48:08 AM 48.9667 -94.5667 97° East 480 552 39,000  Level Winnipeg Center
Mon 04:49:08 AM 48.9500 -94.3667 97° East 480 552 39,000  Level Winnipeg Center
Mon 04:50:08 AM 48.9167 -94.1667 104° East 480 552 39,000  Level Winnipeg Center
Mon 04:51:08 AM 48.9000 -93.9667 97° East 490 564 39,000  Level Winnipeg Center
Mon 04:52:08 AM 48.8833 -93.7333 96° East 490 564 39,000  Level Winnipeg Center
Mon 04:53:08 AM 48.8333 -93.5667 114° Southeast 490 564 39,000  Level Winnipeg Center
Mon 04:54:08 AM 48.8167 -93.3333 96° East 490 564 39,000  Level Winnipeg Center
Mon 04:55:08 AM 48.8000 -93.1333 97° East 490 564 39,000  Level Winnipeg Center
Mon 04:56:08 AM 48.7667 -92.9500 105° East 490 564 39,000  Level Winnipeg Center
Mon 04:57:08 AM 48.7500 -92.7333 97° East 490 564 39,000  Level Winnipeg Center
Mon 04:58:08 AM 48.7000 -92.5333 111° Southeast 490 564 39,000  Level Winnipeg Center
Mon 04:59:08 AM 48.6833 -92.3333 97° East 490 564 39,000  Level Winnipeg Center
Mon 05:00:08 AM 48.6500 -92.1333 104° East 490 564 39,000  Level Winnipeg Center
Mon 05:01:08 AM 48.6333 -91.9000 96° East 490 564 39,000  Level Winnipeg Center
Mon 05:02:08 AM 48.6000 -91.7333 107° East 500 575 39,000  Level Winnipeg Center
Mon 05:03:08 AM 48.5833 -91.5333 97° East 490 564 39,000  Level Winnipeg Center
Mon 05:04:08 AM 48.5333 -91.3333 111° Southeast 490 564 39,000  Level Winnipeg Center
Mon 05:05:08 AM 48.5000 -91.1167 103° East 480 552 39,000  Level Winnipeg Center
Mon 05:06:08 AM 48.4833 -90.9333 98° East 480 552 39,000  Level Winnipeg Center
Mon 05:07:08 AM 48.4500 -90.7333 104° East 480 552 39,000  Level Winnipeg Center
Mon 05:08:08 AM 48.4167 -90.5333 104° East 470 541 39,000  Level Winnipeg Center
Mon 05:09:08 AM 48.4000 -90.3333 97° East 470 541 39,000  Level Winnipeg Center
Mon 05:10:08 AM 48.3500 -90.1500 112° Southeast 480 552 39,000  Level Winnipeg Center
Mon 05:11:08 AM 48.3167 -89.9500 104° East 480 552 39,000  Level Winnipeg Center
Mon 05:12:08 AM 48.2833 -89.7667 105° East 480 552 39,000  Level Winnipeg Center
Mon 05:13:08 AM 48.2667 -89.5833 98° East 480 552 39,000  Level Winnipeg Center
Mon 05:14:08 AM 48.2333 -89.3833 104° East 470 541 39,000  Level Winnipeg Center
Mon 05:15:08 AM 48.1667 -89.2167 121° Southeast 460 529 39,000  Level Winnipeg Center
Mon 05:16:08 AM 48.1167 -89.0500 114° Southeast 460 529 39,000  Level Winnipeg Center
Mon 05:17:08 AM 48.0667 -88.8833 114° Southeast 460 529 39,000  Level Winnipeg Center
Mon 05:18:08 AM 48.0000 -88.6833 116° Southeast 460 529 39,000  Level Winnipeg Center
Mon 05:19:08 AM 47.9500 -88.5167 114° Southeast 460 529 39,000  Level Winnipeg Center
Mon 05:20:08 AM 47.8833 -88.3333 118° Southeast 470 541 39,000  Level Winnipeg Center
Mon 05:21:08 AM 47.8167 -88.1667 121° Southeast 470 541 39,000  Level Winnipeg Center
Mon 05:22:08 AM 47.7667 -88.0000 114° Southeast 460 529 39,000  Level Winnipeg Center
Mon 05:23:08 AM 47.7167 -87.8333 114° Southeast 450 518 39,000  Level Winnipeg Center
Mon 05:24:08 AM 47.6500 -87.6833 123° Southeast 450 518 39,000  Level Winnipeg Center
Mon 05:25:08 AM 47.6000 -87.5167 114° Southeast 450 518 39,000  Level Winnipeg Center
Mon 05:26:08 AM 47.5333 -87.3500 121° Southeast 450 518 39,000  Level Winnipeg Center
Mon 05:27:08 AM 47.4833 -87.1833 114° Southeast 450 518 39,000  Level Winnipeg Center
Mon 05:28:08 AM 47.4167 -87.0167 121° Southeast 450 518 39,000  Level Winnipeg Center
Mon 05:29:08 AM 47.3667 -86.8667 116° Southeast 450 518 39,000  Level Winnipeg Center
Mon 05:30:08 AM 47.3000 -86.7000 120° Southeast 450 518 39,000  Level Winnipeg Center
Mon 05:31:08 AM 47.2500 -86.5333 114° Southeast 450 518 39,000  Level Winnipeg Center
Mon 05:32:08 AM 47.2000 -86.3833 116° Southeast 450 518 39,000  Level Winnipeg Center
Mon 05:33:08 AM 47.1333 -86.2167 120° Southeast 440 506 39,000  Level Winnipeg Center
Mon 05:34:08 AM 47.0833 -86.0500 114° Southeast 440 506 39,000  Level Winnipeg Center
Mon 05:35:08 AM 47.0167 -85.9000 123° Southeast 440 506 39,000  Level Winnipeg Center
Mon 05:36:08 AM 46.9667 -85.7333 114° Southeast 440 506 39,000  Level Winnipeg Center
Mon 05:37:08 AM 46.9000 -85.5833 123° Southeast 440 506 39,000  Level Winnipeg Center
Mon 05:38:08 AM 46.8500 -85.4500 119° Southeast 440 506 39,000  Level Winnipeg Center
Mon 05:39:08 AM 46.7833 -85.2833 120° Southeast 440 506 39,000  Level Winnipeg Center
Mon 05:40:08 AM 46.7333 -85.1333 116° Southeast 440 506 39,000  Level Winnipeg Center
Mon 05:41:08 AM 46.6667 -84.9667 120° Southeast 440 506 39,000  Level Winnipeg Center
Mon 05:42:08 AM 46.6000 -84.8167 123° Southeast 440 506 39,000  Level Winnipeg Center
Mon 05:43:08 AM 46.5333 -84.6500 120° Southeast 450 518 39,000  Level Winnipeg Center
Mon 05:44:08 AM 46.4667 -84.5000 123° Southeast 450 518 39,000  Level Winnipeg Center
Mon 05:45:35 AM 46.4000 -84.3167 118° Southeast 450 518 39,000  Level Toronto Center
Mon 05:46:35 AM 46.3500 -84.1667 116° Southeast 460 529 39,000  Level Toronto Center
Mon 05:47:35 AM 46.2833 -84.0000 120° Southeast 460 529 39,000  Level Toronto Center
Mon 05:48:35 AM 46.2333 -83.8333 113° Southeast 460 529 39,000  Level Toronto Center
Mon 05:49:35 AM 46.1833 -83.6500 111° Southeast 460 529 39,000  Level Toronto Center
Mon 05:50:35 AM 46.1167 -83.5000 123° Southeast 460 529 39,000  Level Toronto Center
Mon 05:51:35 AM 46.0500 -83.3333 120° Southeast 460 529 39,000  Level Toronto Center
Mon 05:52:35 AM 46.0167 -83.1833 108° East 450 518 39,000  Level Toronto Center
Mon 05:53:35 AM 45.9500 -83.0167 120° Southeast 450 518 39,000  Level Toronto Center
Mon 05:54:35 AM 45.8833 -82.8500 120° Southeast 450 518 39,000  Level Toronto Center
Mon 05:55:35 AM 45.8167 -82.7000 122° Southeast 450 518 39,000  Level Toronto Center
Mon 05:56:35 AM 45.7833 -82.5333 106° East 460 529 39,000  Level Toronto Center
Mon 05:57:35 AM 45.7167 -82.3833 122° Southeast 460 529 39,000  Level Toronto Center
Mon 05:58:35 AM 45.6500 -82.2167 120° Southeast 460 529 39,000  Level Toronto Center
Mon 05:59:35 AM 45.5833 -82.0333 117° Southeast 460 529 39,000  Level Toronto Center
Mon 06:00:35 AM 45.5333 -81.8667 113° Southeast 470 541 39,000  Level Toronto Center
Mon 06:01:35 AM 45.4667 -81.7167 122° Southeast 460 529 39,000  Level Toronto Center
Mon 06:02:35 AM 45.4167 -81.5500 113° Southeast 470 541 39,000 -750 Level Toronto Center
Mon 06:03:35 AM 45.3333 -81.4167 132° Southeast 450 518 37,500 -1,700 Descending Toronto Center
Mon 06:04:35 AM 45.2500 -81.3167 140° Southeast 420 483 35,600 -2,000 Descending Toronto Center
Mon 06:05:35 AM 45.1500 -81.2167 145° Southeast 410 472 33,500 -2,050 Descending Toronto Center
Mon 06:06:35 AM 45.0500 -81.1167 145° Southeast 400 460 31,500 -1,950 Descending Toronto Center
Mon 06:07:35 AM 44.9833 -81.0167 133° Southeast 390 449 29,600 -1,850 Descending Toronto Center
Mon 06:08:35 AM 44.9000 -80.9500 150° Southeast 380 437 27,800 -1,650 Descending Toronto Center
Mon 06:09:35 AM 44.8000 -80.8500 145° Southeast 370 426 26,300 -1,200 Descending Toronto Center
Mon 06:10:35 AM 44.7500 -80.7833 137° Southeast 350 403 25,400 -950 Descending Toronto Center
Mon 06:11:35 AM 44.6667 -80.6833 140° Southeast 350 403 24,400 -1,000 Descending Toronto Center
Mon 06:12:35 AM 44.6000 -80.6167 145° Southeast 350 403 23,400 -950 Descending Toronto Center
Mon 06:13:35 AM 44.5167 -80.5167 139° Southeast 350 403 22,500 -1,000 Descending Toronto Center
Mon 06:14:35 AM 44.4333 -80.4500 150° Southeast 350 403 21,400 -1,050 Descending Toronto Center
Mon 06:15:35 AM 44.3667 -80.3833 144° Southeast 340 391 20,400 -1,300 Descending Toronto Center
Mon 06:16:35 AM 44.2833 -80.2833 139° Southeast 330 380 18,800 -1,600 Descending Toronto Center
Mon 06:17:35 AM 44.2167 -80.2167 144° Southeast 330 380 17,200 -1,600 Descending Toronto Center
Mon 06:18:35 AM 44.1500 -80.1500 144° Southeast 310 357 15,600 -1,650 Descending Toronto Center
Mon 06:19:35 AM 44.0833 -80.0667 138° Southeast 310 357 13,900 -1,600 Descending Toronto Center
Mon 06:20:35 AM 44.0167 -80.0000 144° Southeast 300 345 12,400 -1,550 Descending Toronto Center
Mon 06:21:35 AM 43.9500 -79.9333 144° Southeast 280 322 10,800 -1,200 Descending Toronto Center
Mon 06:22:35 AM 43.9000 -79.8667 136° Southeast 270 311 10,000 -1,000 Descending Toronto Center
Mon 06:23:35 AM 43.8333 -79.8167 152° Southeast 260 299 8,800 -1,150 Descending Toronto Center
Mon 06:24:35 AM 43.7833 -79.7500 136° Southeast 250 288 7,700 -1,050 Descending Toronto Center
Mon 06:25:35 AM 43.7667 -79.6500 103° East 280 322 6,700 -1,200 Descending Toronto Center
Mon 06:26:35 AM 43.8333 -79.5667 42° Northeast 300 345 5,300 -1,050 Descending Toronto Center
Mon 06:27:35 AM 43.8833 -79.5000 44° Northeast 290 334 4,600 -650 Descending Toronto Center
Mon 06:28:35 AM 43.9167 -79.4000 65° Northeast 270 311 4,000 -300 Descending Toronto Center
Mon 06:29:35 AM 43.8667 -79.3833 166° South 180 207 4,000  Level Toronto Center
Mon 06:30:35 AM 43.8333 -79.4000 200° South 150 173 4,000  Level Toronto Center
Mon 06:31:35 AM 43.8000 -79.4167 200° South 140 161 4,000 -300 Level Toronto Center
Mon 06:32:35 AM 43.7833 -79.4667 245° Southwest 140 161 3,400 -700 Descending Toronto Center
Mon 06:33:35 AM 43.7500 -79.5167 227° Southwest 140 161 2,600 -750 Descending Toronto Center
Mon 06:34:35 AM 43.7333 -79.5333 216° Southwest 130 150 1,900 -650 Descending Toronto Center
Mon 06:35:35 AM 43.7167 -79.5833 245° Southwest 110 127 1,300 -600 Descending Toronto Center
Mon 06:36:35 AM 43.6833 -79.6167 216° Southwest 120 138 700 -600 Descending Toronto Center

Login

Don't have an account? Register now (free) for customized features, flight alerts, and more!